createdAt,value
2019-06-07T00:00:39.721Z,100155.26
2019-06-07T00:05:39.760Z,100158.34
2019-06-07T00:10:46.033Z,100155.20
2019-06-07T00:15:52.000Z,100159.27
2019-06-07T00:20:57.978Z,100164.83
2019-06-07T00:26:03.846Z,100163.23
2019-06-07T00:31:11.538Z,100169.31
2019-06-07T00:36:20.677Z,100164.66
2019-06-07T00:41:26.462Z,100171.14
2019-06-07T00:46:32.433Z,100167.59
2019-06-07T00:51:50.058Z,100166.92
2019-06-07T00:56:47.343Z,100165.86
2019-06-07T01:01:53.319Z,100161.31
2019-06-07T01:06:59.290Z,100167.50
2019-06-07T01:12:05.567Z,100165.08
2019-06-07T01:17:39.907Z,100170.16
2019-06-07T01:22:32.458Z,100167.91
2019-06-07T01:27:40.070Z,100165.41
2019-06-07T01:32:46.038Z,100162.11
2019-06-07T01:37:51.926Z,100171.06
2019-06-07T01:42:57.892Z,100174.29
2019-06-07T01:48:03.955Z,100168.92
2019-06-07T01:53:10.023Z,100173.35
2019-06-07T01:58:17.056Z,100169.52
2019-06-07T02:03:26.965Z,100170.22
2019-06-07T02:08:34.318Z,100176.91
2019-06-07T02:13:38.824Z,100176.47
2019-06-07T02:19:01.238Z,100172.41
2019-06-07T02:23:52.725Z,100170.95
2019-06-07T02:28:58.689Z,100176.36
2019-06-07T02:34:04.698Z,100179.86
2019-06-07T02:39:10.726Z,100178.80
2019-06-07T02:44:16.902Z,100184.66
2019-06-07T02:49:25.208Z,100188.09
2019-06-07T02:54:36.168Z,100191.53
2019-06-07T03:00:02.983Z,100194.28
2019-06-07T03:04:46.929Z,100207.11
2019-06-07T03:09:53.444Z,100209.38
2019-06-07T03:15:00.201Z,100209.08
2019-06-07T03:20:10.574Z,100213.00
2019-06-07T03:25:16.543Z,100206.08
2019-06-07T03:30:38.877Z,100219.56
2019-06-07T03:35:32.350Z,100225.62
2019-06-07T03:40:39.992Z,100226.11
2019-06-07T03:45:45.648Z,100222.75
2019-06-07T03:51:04.129Z,100224.27
2019-06-07T03:55:59.128Z,100225.91
2019-06-07T04:01:05.098Z,100233.37
2019-06-07T04:06:11.086Z,100238.59
2019-06-07T04:11:16.931Z,100244.02
2019-06-07T04:16:24.138Z,100253.95
2019-06-07T04:21:31.953Z,100257.05
2019-06-07T04:26:43.183Z,100260.83
2019-06-07T04:31:45.955Z,100258.79
2019-06-07T04:36:59.023Z,100257.76
2019-06-07T04:42:03.550Z,100251.29
2019-06-07T04:47:10.415Z,100269.01
2019-06-07T04:52:16.380Z,100255.50
2019-06-07T04:57:22.628Z,100264.56
2019-06-07T05:02:29.531Z,100251.45
2019-06-07T05:07:37.904Z,100256.34
2019-06-07T05:12:44.521Z,100262.44
2019-06-07T05:17:51.146Z,100255.03
2019-06-07T05:22:57.339Z,100258.59
2019-06-07T05:28:03.419Z,100263.22
2019-06-07T05:33:11.218Z,100270.14
2019-06-07T05:38:17.448Z,100271.55
2019-06-07T05:43:29.262Z,100273.66
2019-06-07T05:48:36.640Z,100226.16
2019-06-07T05:53:45.860Z,100277.06
2019-06-07T05:58:49.851Z,100282.08
2019-06-07T06:03:55.945Z,100288.88
2019-06-07T06:09:13.333Z,100287.59
2019-06-07T06:14:09.108Z,100293.34
2019-06-07T06:19:15.283Z,100293.15
2019-06-07T06:24:21.371Z,100297.56
2019-06-07T06:29:27.447Z,100304.84
2019-06-07T06:34:33.528Z,100318.25
2019-06-07T06:39:39.649Z,100316.95
2019-06-07T06:44:47.113Z,100320.43
2019-06-07T06:49:54.396Z,100321.56
2019-06-07T06:55:01.384Z,100326.93
2019-06-07T07:00:10.722Z,100330.39
2019-06-07T07:05:17.234Z,100329.09
2019-06-07T07:10:28.302Z,100337.28
2019-06-07T07:15:35.004Z,100333.02
2019-06-07T07:20:43.510Z,100337.75
2019-06-07T07:25:55.412Z,100343.22
2019-06-07T07:30:57.301Z,100354.16
2019-06-07T07:36:19.070Z,100347.98
2019-06-07T07:41:15.543Z,100357.65
2019-06-07T07:46:28.962Z,100350.80
2019-06-07T07:51:26.110Z,100342.83
2019-06-07T07:56:33.297Z,100349.46
2019-06-07T08:01:39.164Z,100358.42
2019-06-07T08:06:46.653Z,100356.61
2019-06-07T08:11:59.984Z,100352.82
2019-06-07T08:17:01.732Z,100353.62
2019-06-07T08:22:08.899Z,100349.67
2019-06-07T08:27:25.724Z,100360.23
2019-06-07T08:32:23.107Z,100365.41
2019-06-07T08:38:13.278Z,100363.84
2019-06-07T08:42:58.774Z,100359.63
2019-06-07T08:47:45.404Z,100365.63
2019-06-07T08:52:54.753Z,100371.05
2019-06-07T08:58:04.242Z,100376.56
2019-06-07T09:03:07.715Z,100374.66
2019-06-07T09:08:29.330Z,100377.91
2019-06-07T09:13:21.545Z,100377.09
2019-06-07T09:18:41.834Z,100377.64
2019-06-07T09:23:35.696Z,100371.90
2019-06-07T09:28:42.617Z,100369.16
2019-06-07T09:33:48.892Z,100365.86
2019-06-07T09:38:58.615Z,100355.45
2019-06-07T09:44:18.962Z,100348.87
2019-06-07T09:49:25.753Z,100353.81
2019-06-07T09:59:26.802Z,100363.36
2019-06-07T10:04:32.803Z,100372.47
2019-06-07T10:10:11.815Z,100366.96
2019-06-07T10:14:47.099Z,100360.61
2019-06-07T10:19:53.136Z,100364.39
2019-06-07T10:24:59.719Z,100372.67
2019-06-07T10:30:08.391Z,100362.98
2019-06-07T10:35:16.537Z,100354.33
2019-06-07T10:40:23.070Z,100357.36
2019-06-07T10:45:29.042Z,100354.92
2019-06-07T10:50:35.009Z,100341.67
2019-06-07T10:55:41.081Z,100347.02
2019-06-07T11:00:47.052Z,100350.72
2019-06-07T11:05:53.031Z,100351.63
2019-06-07T11:10:58.992Z,100354.22
2019-06-07T11:16:06.747Z,100351.27
2019-06-07T11:21:14.206Z,100351.05
2019-06-07T11:26:20.699Z,100348.68
2019-06-07T11:31:26.665Z,100342.56
2019-06-07T11:36:32.841Z,100339.06
2019-06-07T11:41:38.812Z,100341.33
2019-06-07T11:46:44.989Z,100339.92
2019-06-07T11:51:50.963Z,100333.05
2019-06-07T11:56:56.933Z,100333.18
2019-06-07T12:02:02.811Z,100329.63
2019-06-07T12:07:10.839Z,100327.84
2019-06-07T12:12:16.689Z,100319.71
2019-06-07T12:17:23.472Z,100320.88
2019-06-07T12:22:29.447Z,100312.83
2019-06-07T12:27:35.424Z,100322.15
2019-06-07T12:32:41.320Z,100332.63
2019-06-07T12:37:47.254Z,100329.94
2019-06-07T12:42:53.185Z,100330.49
2019-06-07T12:47:59.067Z,100322.05
2019-06-07T12:53:06.089Z,100306.89
2019-06-07T12:58:12.053Z,100306.61
2019-06-07T13:03:20.847Z,100321.62
2019-06-07T13:08:28.054Z,100318.41
2019-06-07T13:13:34.270Z,100312.67
2019-06-07T13:18:40.140Z,100299.98
2019-06-07T13:23:46.209Z,100303.24
2019-06-07T13:28:52.192Z,100306.86
2019-06-07T13:33:57.953Z,100303.87
2019-06-07T13:39:04.979Z,100301.95
2019-06-07T13:44:10.910Z,100302.22
2019-06-07T13:49:17.337Z,100309.63
2019-06-07T13:54:24.741Z,100323.62
2019-06-07T13:59:30.030Z,100321.98
2019-06-07T14:04:35.923Z,100324.14
2019-06-07T14:09:42.106Z,100331.00
2019-06-07T14:14:48.052Z,100338.69
2019-06-07T14:19:54.142Z,100359.17
2019-06-07T14:25:00.015Z,100364.28
2019-06-07T14:30:09.315Z,100367.13
2019-06-07T14:35:15.841Z,100361.01
2019-06-07T14:40:23.172Z,100361.88
2019-06-07T14:45:29.782Z,100358.77
2019-06-07T14:50:35.924Z,100350.30
2019-06-07T14:55:41.981Z,100352.29
2019-06-07T15:00:47.959Z,100358.97
2019-06-07T15:05:53.897Z,100351.83
2019-06-07T15:10:59.797Z,100360.57
2019-06-07T15:16:05.861Z,100372.67
2019-06-07T15:21:13.352Z,100377.09
2019-06-07T15:26:19.460Z,100374.65
2019-06-07T15:31:25.409Z,100365.86
2019-06-07T15:36:32.325Z,100359.67
2019-06-07T15:41:39.713Z,100361.77
2019-06-07T15:46:46.086Z,100363.27
2019-06-07T15:51:52.215Z,100344.36
2019-06-07T15:56:59.251Z,100337.48
2019-06-07T16:02:05.227Z,100344.97
2019-06-07T16:07:11.101Z,100349.31
2019-06-07T16:12:17.182Z,100348.87
2019-06-07T16:17:23.141Z,100353.29
2019-06-07T16:22:29.104Z,100361.59
2019-06-07T16:27:36.727Z,100366.98
2019-06-07T16:32:44.142Z,100374.95
2019-06-07T16:37:52.106Z,100377.94
2019-06-07T16:42:57.502Z,100391.89
2019-06-07T16:48:03.469Z,100400.61
2019-06-07T16:53:09.542Z,100402.98
2019-06-07T16:58:15.416Z,100397.41
2019-06-07T17:03:21.383Z,100388.16
2019-06-07T17:08:27.247Z,100393.42
2019-06-07T17:13:34.213Z,100383.69
2019-06-07T17:18:40.944Z,100382.20
2019-06-07T17:23:49.367Z,100374.11
2019-06-07T17:28:55.217Z,100376.28
2019-06-07T17:34:01.198Z,100376.52
2019-06-07T17:39:09.631Z,100383.84
2019-06-07T17:44:15.834Z,100383.09
2019-06-07T17:49:23.616Z,100387.14
2019-06-07T17:54:29.689Z,100383.58
2019-06-07T17:59:35.559Z,100383.07
2019-06-07T18:04:43.136Z,100390.98
2019-06-07T18:09:51.638Z,100388.55
2019-06-07T18:14:57.561Z,100388.63
2019-06-07T18:20:05.084Z,100386.07
2019-06-07T18:25:10.520Z,100377.55
2019-06-07T18:30:16.383Z,100381.47
2019-06-07T18:35:22.380Z,100378.71
2019-06-07T18:40:28.447Z,100388.96
2019-06-07T18:45:34.516Z,100386.02
2019-06-07T18:50:40.588Z,100384.38
2019-06-07T18:55:47.726Z,100385.30
2019-06-07T19:00:53.898Z,100387.39
2019-06-07T19:05:59.838Z,100382.69
2019-06-07T19:11:05.801Z,100389.02
2019-06-07T19:16:11.767Z,100393.08
2019-06-07T19:21:17.638Z,100397.74
2019-06-07T19:26:23.528Z,100401.52
2019-06-07T19:31:29.525Z,100407.28
2019-06-07T19:36:47.966Z,100406.81
2019-06-07T19:41:43.163Z,100410.02
2019-06-07T19:46:56.366Z,100414.28
2019-06-07T19:52:03.234Z,100416.57
2019-06-07T19:57:09.433Z,100423.02
2019-06-07T20:02:16.414Z,100413.88
2019-06-07T20:07:22.396Z,100413.60
2019-06-07T20:12:28.294Z,100411.52
2019-06-07T20:17:34.228Z,100416.81
2019-06-07T20:22:40.297Z,100430.65
2019-06-07T20:27:46.473Z,100428.30
2019-06-07T20:32:52.464Z,100431.48
2019-06-07T20:37:58.925Z,100437.02
2019-06-07T20:43:05.766Z,100444.41
2019-06-07T20:48:12.307Z,100457.53
2019-06-07T20:53:18.386Z,100458.35
2019-06-07T20:58:25.281Z,100460.76
2019-06-07T21:03:31.243Z,100460.54
2019-06-07T21:08:37.207Z,100462.30
2019-06-07T21:13:43.633Z,100462.17
2019-06-07T21:18:49.616Z,100453.00
2019-06-07T21:23:55.632Z,100451.50
2019-06-07T21:29:03.245Z,100439.81
2019-06-07T21:34:12.116Z,100440.95
2019-06-07T21:39:17.034Z,100445.23
2019-06-07T21:44:23.202Z,100453.17
2019-06-07T21:49:29.713Z,100449.35
2019-06-07T21:54:35.654Z,100456.07
2019-06-07T21:59:41.725Z,100455.41
2019-06-07T22:04:47.595Z,100450.48
2019-06-07T22:09:53.670Z,100454.77
2019-06-07T22:14:59.641Z,100462.73
2019-06-07T22:20:08.663Z,100467.33
2019-06-07T22:25:15.883Z,100462.82
2019-06-07T22:30:22.402Z,100470.25
2019-06-07T22:35:28.334Z,100471.47
2019-06-07T22:40:34.611Z,100470.63
2019-06-07T22:45:41.401Z,100459.53
2019-06-07T22:50:48.909Z,100467.08
2019-06-07T22:55:56.677Z,100466.63
2019-06-07T23:01:02.797Z,100456.70
2019-06-07T23:06:08.867Z,100455.67
2019-06-07T23:11:15.202Z,100455.27
2019-06-07T23:16:21.330Z,100443.97
2019-06-07T23:21:27.407Z,100443.27
2019-06-07T23:26:33.468Z,100430.83
2019-06-07T23:31:39.305Z,100429.36
2019-06-07T23:36:45.307Z,100420.05
2019-06-07T23:41:51.498Z,100414.67
2019-06-07T23:47:10.413Z,100416.24
2019-06-07T23:52:05.313Z,100422.27
2019-06-07T23:57:12.136Z,100421.45
